sensor_id;sensor_type;location;lat;lon;timestamp;P1;durP1;ratioP1;P2;durP2;ratioP2
13366;SDS011;6752;52.612;13.630;2022-12-07T00:00:49;17.08;;;13.18;;
13366;SDS011;6752;52.612;13.630;2022-12-07T00:05:57;23.45;;;15.80;;
13366;SDS011;6752;52.612;13.630;2022-12-07T00:11:00;29.85;;;19.35;;
13366;SDS011;6752;52.612;13.630;2022-12-07T00:16:10;32.40;;;21.02;;
13366;SDS011;6752;52.612;13.630;2022-12-07T00:26:17;33.88;;;19.42;;
13366;SDS011;6752;52.612;13.630;2022-12-07T00:31:22;25.83;;;18.40;;
13366;SDS011;6752;52.612;13.630;2022-12-07T00:36:26;32.35;;;19.90;;
13366;SDS011;6752;52.612;13.630;2022-12-07T00:41:28;31.77;;;19.58;;
13366;SDS011;6752;52.612;13.630;2022-12-07T00:46:31;32.22;;;20.65;;
13366;SDS011;6752;52.612;13.630;2022-12-07T00:51:33;27.52;;;18.00;;
13366;SDS011;6752;52.612;13.630;2022-12-07T00:56:38;25.70;;;18.10;;
13366;SDS011;6752;52.612;13.630;2022-12-07T01:01:41;28.02;;;19.12;;
13366;SDS011;6752;52.612;13.630;2022-12-07T01:06:43;29.45;;;19.95;;
13366;SDS011;6752;52.612;13.630;2022-12-07T01:11:48;27.83;;;18.98;;
13366;SDS011;6752;52.612;13.630;2022-12-07T01:16:51;24.90;;;18.87;;
13366;SDS011;6752;52.612;13.630;2022-12-07T01:21:53;29.33;;;20.10;;
13366;SDS011;6752;52.612;13.630;2022-12-07T01:26:59;30.42;;;20.58;;
13366;SDS011;6752;52.612;13.630;2022-12-07T01:32:02;27.90;;;18.98;;
13366;SDS011;6752;52.612;13.630;2022-12-07T01:37:04;24.37;;;18.08;;
13366;SDS011;6752;52.612;13.630;2022-12-07T01:42:12;25.50;;;20.10;;
13366;SDS011;6752;52.612;13.630;2022-12-07T01:47:15;20.65;;;18.42;;
13366;SDS011;6752;52.612;13.630;2022-12-07T01:52:31;21.70;;;15.65;;
13366;SDS011;6752;52.612;13.630;2022-12-07T01:57:28;23.23;;;17.48;;
13366;SDS011;6752;52.612;13.630;2022-12-07T02:02:39;22.92;;;16.30;;
13366;SDS011;6752;52.612;13.630;2022-12-07T02:07:39;21.98;;;16.77;;
13366;SDS011;6752;52.612;13.630;2022-12-07T02:12:41;20.90;;;18.70;;
13366;SDS011;6752;52.612;13.630;2022-12-07T02:28:18;22.73;;;16.30;;
13366;SDS011;6752;52.612;13.630;2022-12-07T02:33:31;21.12;;;14.93;;
13366;SDS011;6752;52.612;13.630;2022-12-07T02:38:35;22.27;;;16.00;;
13366;SDS011;6752;52.612;13.630;2022-12-07T02:43:51;20.52;;;15.80;;
13366;SDS011;6752;52.612;13.630;2022-12-07T02:48:54;20.12;;;17.87;;
13366;SDS011;6752;52.612;13.630;2022-12-07T02:53:59;17.58;;;15.77;;
13366;SDS011;6752;52.612;13.630;2022-12-07T03:09:28;18.25;;;13.55;;
13366;SDS011;6752;52.612;13.630;2022-12-07T03:14:30;18.95;;;14.75;;
13366;SDS011;6752;52.612;13.630;2022-12-07T03:19:35;24.02;;;17.02;;
13366;SDS011;6752;52.612;13.630;2022-12-07T03:24:45;27.95;;;19.77;;
13366;SDS011;6752;52.612;13.630;2022-12-07T03:29:50;23.05;;;17.05;;
13366;SDS011;6752;52.612;13.630;2022-12-07T03:34:50;22.30;;;16.30;;
13366;SDS011;6752;52.612;13.630;2022-12-07T03:40:40;25.15;;;17.02;;
13366;SDS011;6752;52.612;13.630;2022-12-07T03:45:01;25.48;;;17.12;;
13366;SDS011;6752;52.612;13.630;2022-12-07T03:55:14;22.60;;;15.93;;
13366;SDS011;6752;52.612;13.630;2022-12-07T04:05:24;25.25;;;18.35;;
13366;SDS011;6752;52.612;13.630;2022-12-07T04:15:28;28.02;;;19.33;;
13366;SDS011;6752;52.612;13.630;2022-12-07T04:20:31;33.03;;;20.52;;
13366;SDS011;6752;52.612;13.630;2022-12-07T04:25:33;33.58;;;21.80;;
13366;SDS011;6752;52.612;13.630;2022-12-07T04:35:37;33.95;;;22.40;;
13366;SDS011;6752;52.612;13.630;2022-12-07T04:40:42;34.65;;;26.50;;
13366;SDS011;6752;52.612;13.630;2022-12-07T04:45:45;34.47;;;22.45;;
13366;SDS011;6752;52.612;13.630;2022-12-07T04:50:50;40.17;;;24.25;;
13366;SDS011;6752;52.612;13.630;2022-12-07T04:55:52;36.80;;;25.12;;
13366;SDS011;6752;52.612;13.630;2022-12-07T05:05:57;47.92;;;28.35;;
13366;SDS011;6752;52.612;13.630;2022-12-07T05:10:59;38.90;;;26.75;;
13366;SDS011;6752;52.612;13.630;2022-12-07T05:16:02;36.08;;;25.00;;
13366;SDS011;6752;52.612;13.630;2022-12-07T05:21:05;46.70;;;28.70;;
13366;SDS011;6752;52.612;13.630;2022-12-07T05:26:07;59.22;;;32.58;;
13366;SDS011;6752;52.612;13.630;2022-12-07T05:31:16;60.38;;;33.45;;
13366;SDS011;6752;52.612;13.630;2022-12-07T05:41:23;59.22;;;33.67;;
13366;SDS011;6752;52.612;13.630;2022-12-07T05:46:26;72.50;;;40.22;;
13366;SDS011;6752;52.612;13.630;2022-12-07T05:51:31;85.62;;;43.87;;
13366;SDS011;6752;52.612;13.630;2022-12-07T05:56:33;97.75;;;46.88;;
13366;SDS011;6752;52.612;13.630;2022-12-07T06:01:35;69.30;;;39.00;;
13366;SDS011;6752;52.612;13.630;2022-12-07T06:06:38;72.82;;;41.63;;
13366;SDS011;6752;52.612;13.630;2022-12-07T06:11:41;70.37;;;39.75;;
13366;SDS011;6752;52.612;13.630;2022-12-07T06:17:01;69.37;;;39.05;;
13366;SDS011;6752;52.612;13.630;2022-12-07T06:22:07;60.47;;;36.25;;
13366;SDS011;6752;52.612;13.630;2022-12-07T06:27:09;73.93;;;39.83;;
13366;SDS011;6752;52.612;13.630;2022-12-07T06:32:14;71.78;;;40.85;;
13366;SDS011;6752;52.612;13.630;2022-12-07T06:42:21;66.70;;;35.67;;
13366;SDS011;6752;52.612;13.630;2022-12-07T06:47:24;51.25;;;33.30;;
13366;SDS011;6752;52.612;13.630;2022-12-07T06:52:29;54.05;;;31.35;;
13366;SDS011;6752;52.612;13.630;2022-12-07T06:57:34;42.67;;;33.88;;
13366;SDS011;6752;52.612;13.630;2022-12-07T07:02:36;44.38;;;26.40;;
13366;SDS011;6752;52.612;13.630;2022-12-07T07:07:41;53.50;;;29.77;;
13366;SDS011;6752;52.612;13.630;2022-12-07T07:12:44;47.05;;;27.85;;
13366;SDS011;6752;52.612;13.630;2022-12-07T07:17:50;42.72;;;26.95;;
13366;SDS011;6752;52.612;13.630;2022-12-07T07:22:55;50.40;;;29.12;;
13366;SDS011;6752;52.612;13.630;2022-12-07T07:27:57;48.97;;;28.30;;
13366;SDS011;6752;52.612;13.630;2022-12-07T07:33:03;52.38;;;29.67;;
13366;SDS011;6752;52.612;13.630;2022-12-07T07:43:10;53.28;;;28.35;;
13366;SDS011;6752;52.612;13.630;2022-12-07T07:48:12;36.00;;;23.50;;
13366;SDS011;6752;52.612;13.630;2022-12-07T07:53:18;40.08;;;23.80;;
13366;SDS011;6752;52.612;13.630;2022-12-07T07:58:20;49.35;;;25.58;;
13366;SDS011;6752;52.612;13.630;2022-12-07T08:03:25;35.63;;;27.45;;
13366;SDS011;6752;52.612;13.630;2022-12-07T08:08:27;26.92;;;17.52;;
13366;SDS011;6752;52.612;13.630;2022-12-07T08:13:34;25.05;;;15.80;;
13366;SDS011;6752;52.612;13.630;2022-12-07T08:18:40;26.62;;;17.10;;
13366;SDS011;6752;52.612;13.630;2022-12-07T08:23:41;25.75;;;15.55;;
13366;SDS011;6752;52.612;13.630;2022-12-07T08:33:48;22.73;;;15.83;;
13366;SDS011;6752;52.612;13.630;2022-12-07T08:38:51;22.33;;;15.73;;
13366;SDS011;6752;52.612;13.630;2022-12-07T08:43:53;20.80;;;14.90;;
13366;SDS011;6752;52.612;13.630;2022-12-07T08:48:57;23.70;;;14.57;;
13366;SDS011;6752;52.612;13.630;2022-12-07T08:54:06;19.20;;;13.43;;
13366;SDS011;6752;52.612;13.630;2022-12-07T08:59:04;21.83;;;14.95;;
13366;SDS011;6752;52.612;13.630;2022-12-07T09:04:09;20.90;;;14.68;;
13366;SDS011;6752;52.612;13.630;2022-12-07T09:09:11;20.67;;;12.93;;
13366;SDS011;6752;52.612;13.630;2022-12-07T09:14:16;13.50;;;11.67;;
13366;SDS011;6752;52.612;13.630;2022-12-07T09:19:21;12.85;;;9.25;;
13366;SDS011;6752;52.612;13.630;2022-12-07T09:24:24;14.43;;;9.65;;
13366;SDS011;6752;52.612;13.630;2022-12-07T09:29:26;11.63;;;9.73;;
13366;SDS011;6752;52.612;13.630;2022-12-07T09:34:31;13.27;;;10.45;;
13366;SDS011;6752;52.612;13.630;2022-12-07T09:39:34;11.80;;;10.10;;
13366;SDS011;6752;52.612;13.630;2022-12-07T09:44:39;11.25;;;8.73;;
13366;SDS011;6752;52.612;13.630;2022-12-07T09:49:41;13.57;;;9.40;;
13366;SDS011;6752;52.612;13.630;2022-12-07T09:54:47;9.97;;;8.97;;
13366;SDS011;6752;52.612;13.630;2022-12-07T09:59:49;9.40;;;7.55;;
13366;SDS011;6752;52.612;13.630;2022-12-07T10:04:54;9.38;;;8.10;;
13366;SDS011;6752;52.612;13.630;2022-12-07T10:09:57;12.90;;;8.70;;
13366;SDS011;6752;52.612;13.630;2022-12-07T10:15:03;12.25;;;7.95;;
13366;SDS011;6752;52.612;13.630;2022-12-07T10:20:48;9.23;;;7.57;;
13366;SDS011;6752;52.612;13.630;2022-12-07T10:25:29;8.68;;;7.75;;
13366;SDS011;6752;52.612;13.630;2022-12-07T10:30:36;9.52;;;7.93;;
13366;SDS011;6752;52.612;13.630;2022-12-07T10:35:39;8.95;;;6.78;;
13366;SDS011;6752;52.612;13.630;2022-12-07T10:40:44;7.80;;;7.00;;
13366;SDS011;6752;52.612;13.630;2022-12-07T10:46:07;8.07;;;6.75;;
13366;SDS011;6752;52.612;13.630;2022-12-07T10:51:08;9.13;;;6.70;;
13366;SDS011;6752;52.612;13.630;2022-12-07T11:01:38;6.65;;;5.50;;
13366;SDS011;6752;52.612;13.630;2022-12-07T11:12:02;10.77;;;6.85;;
13366;SDS011;6752;52.612;13.630;2022-12-07T11:22:14;8.25;;;7.07;;
13366;SDS011;6752;52.612;13.630;2022-12-07T11:27:19;9.90;;;7.37;;
13366;SDS011;6752;52.612;13.630;2022-12-07T11:37:47;8.60;;;7.65;;
13366;SDS011;6752;52.612;13.630;2022-12-07T11:42:53;11.65;;;8.25;;
13366;SDS011;6752;52.612;13.630;2022-12-07T11:47:58;9.90;;;8.23;;
13366;SDS011;6752;52.612;13.630;2022-12-07T11:53:04;9.77;;;8.38;;
13366;SDS011;6752;52.612;13.630;2022-12-07T11:58:18;14.20;;;8.85;;
13366;SDS011;6752;52.612;13.630;2022-12-07T12:03:19;10.18;;;8.85;;
13366;SDS011;6752;52.612;13.630;2022-12-07T12:09:05;11.93;;;8.75;;
13366;SDS011;6752;52.612;13.630;2022-12-07T12:13:40;12.45;;;8.73;;
13366;SDS011;6752;52.612;13.630;2022-12-07T12:18:53;11.00;;;9.00;;
13366;SDS011;6752;52.612;13.630;2022-12-07T12:24:08;13.07;;;8.70;;
13366;SDS011;6752;52.612;13.630;2022-12-07T12:29:16;27.40;;;18.47;;
13366;SDS011;6752;52.612;13.630;2022-12-07T12:39:40;12.73;;;9.00;;
13366;SDS011;6752;52.612;13.630;2022-12-07T12:45:05;11.20;;;8.93;;
13366;SDS011;6752;52.612;13.630;2022-12-07T12:50:15;15.30;;;9.30;;
13366;SDS011;6752;52.612;13.630;2022-12-07T12:55:21;17.50;;;9.23;;
13366;SDS011;6752;52.612;13.630;2022-12-07T13:00:25;18.45;;;9.48;;
13366;SDS011;6752;52.612;13.630;2022-12-07T13:05:30;13.95;;;8.48;;
13366;SDS011;6752;52.612;13.630;2022-12-07T13:10:34;19.27;;;8.18;;
13366;SDS011;6752;52.612;13.630;2022-12-07T13:20:42;14.95;;;8.25;;
13366;SDS011;6752;52.612;13.630;2022-12-07T13:25:59;14.57;;;8.18;;
13366;SDS011;6752;52.612;13.630;2022-12-07T13:36:01;11.80;;;6.45;;
13366;SDS011;6752;52.612;13.630;2022-12-07T13:46:12;12.57;;;7.72;;
13366;SDS011;6752;52.612;13.630;2022-12-07T13:51:18;11.55;;;7.47;;
13366;SDS011;6752;52.612;13.630;2022-12-07T13:56:23;15.75;;;7.95;;
13366;SDS011;6752;52.612;13.630;2022-12-07T14:01:25;11.52;;;6.37;;
13366;SDS011;6752;52.612;13.630;2022-12-07T14:06:30;20.33;;;7.87;;
13366;SDS011;6752;52.612;13.630;2022-12-07T14:11:35;10.57;;;6.03;;
13366;SDS011;6752;52.612;13.630;2022-12-07T14:16:40;11.93;;;6.37;;
13366;SDS011;6752;52.612;13.630;2022-12-07T14:21:42;11.27;;;6.32;;
13366;SDS011;6752;52.612;13.630;2022-12-07T14:26:48;13.68;;;6.75;;
13366;SDS011;6752;52.612;13.630;2022-12-07T14:31:51;15.48;;;6.97;;
13366;SDS011;6752;52.612;13.630;2022-12-07T14:36:52;13.10;;;7.00;;
13366;SDS011;6752;52.612;13.630;2022-12-07T14:41:58;9.98;;;7.18;;
13366;SDS011;6752;52.612;13.630;2022-12-07T14:47:00;15.02;;;7.78;;
13366;SDS011;6752;52.612;13.630;2022-12-07T14:52:02;13.02;;;7.62;;
13366;SDS011;6752;52.612;13.630;2022-12-07T14:57:06;13.93;;;7.12;;
13366;SDS011;6752;52.612;13.630;2022-12-07T15:02:09;15.27;;;7.85;;
13366;SDS011;6752;52.612;13.630;2022-12-07T15:07:15;15.82;;;7.55;;
13366;SDS011;6752;52.612;13.630;2022-12-07T15:12:12;17.52;;;7.12;;
13366;SDS011;6752;52.612;13.630;2022-12-07T15:17:14;17.23;;;7.07;;
13366;SDS011;6752;52.612;13.630;2022-12-07T15:22:17;13.00;;;7.27;;
13366;SDS011;6752;52.612;13.630;2022-12-07T15:27:19;13.20;;;7.10;;
13366;SDS011;6752;52.612;13.630;2022-12-07T15:32:21;13.30;;;6.62;;
13366;SDS011;6752;52.612;13.630;2022-12-07T15:37:24;10.80;;;7.32;;
13366;SDS011;6752;52.612;13.630;2022-12-07T15:42:26;18.48;;;8.52;;
13366;SDS011;6752;52.612;13.630;2022-12-07T15:47:33;19.52;;;8.07;;
13366;SDS011;6752;52.612;13.630;2022-12-07T15:52:31;17.58;;;7.37;;
13366;SDS011;6752;52.612;13.630;2022-12-07T15:57:34;14.13;;;7.03;;
13366;SDS011;6752;52.612;13.630;2022-12-07T16:02:36;12.48;;;6.35;;
13366;SDS011;6752;52.612;13.630;2022-12-07T16:07:38;10.48;;;6.65;;
13366;SDS011;6752;52.612;13.630;2022-12-07T16:12:41;6.55;;;5.40;;
13366;SDS011;6752;52.612;13.630;2022-12-07T16:17:43;8.95;;;6.28;;
13366;SDS011;6752;52.612;13.630;2022-12-07T16:22:45;7.60;;;6.05;;
13366;SDS011;6752;52.612;13.630;2022-12-07T16:27:48;10.15;;;6.18;;
13366;SDS011;6752;52.612;13.630;2022-12-07T16:32:50;8.95;;;7.03;;
13366;SDS011;6752;52.612;13.630;2022-12-07T16:37:53;11.57;;;7.32;;
13366;SDS011;6752;52.612;13.630;2022-12-07T16:42:55;11.38;;;7.85;;
13366;SDS011;6752;52.612;13.630;2022-12-07T16:47:57;13.00;;;9.35;;
13366;SDS011;6752;52.612;13.630;2022-12-07T16:58:02;11.93;;;7.93;;
13366;SDS011;6752;52.612;13.630;2022-12-07T17:03:04;15.05;;;7.95;;
13366;SDS011;6752;52.612;13.630;2022-12-07T17:08:06;17.62;;;8.77;;
13366;SDS011;6752;52.612;13.630;2022-12-07T17:13:11;16.08;;;8.30;;
13366;SDS011;6752;52.612;13.630;2022-12-07T17:18:31;12.90;;;7.87;;
13366;SDS011;6752;52.612;13.630;2022-12-07T17:23:32;15.93;;;8.18;;
13366;SDS011;6752;52.612;13.630;2022-12-07T17:28:34;14.10;;;8.00;;
13366;SDS011;6752;52.612;13.630;2022-12-07T17:33:37;26.05;;;8.77;;
13366;SDS011;6752;52.612;13.630;2022-12-07T17:38:39;14.93;;;7.82;;
13366;SDS011;6752;52.612;13.630;2022-12-07T17:43:44;18.25;;;7.95;;
13366;SDS011;6752;52.612;13.630;2022-12-07T17:48:47;15.38;;;7.85;;
13366;SDS011;6752;52.612;13.630;2022-12-07T17:53:52;18.77;;;7.93;;
13366;SDS011;6752;52.612;13.630;2022-12-07T17:58:55;15.77;;;7.53;;
13366;SDS011;6752;52.612;13.630;2022-12-07T18:04:01;21.48;;;8.23;;
13366;SDS011;6752;52.612;13.630;2022-12-07T18:09:03;17.75;;;8.73;;
13366;SDS011;6752;52.612;13.630;2022-12-07T18:14:05;16.90;;;8.07;;
13366;SDS011;6752;52.612;13.630;2022-12-07T18:19:08;9.48;;;7.68;;
13366;SDS011;6752;52.612;13.630;2022-12-07T18:24:12;18.37;;;8.85;;
13366;SDS011;6752;52.612;13.630;2022-12-07T18:29:14;16.08;;;8.02;;
13366;SDS011;6752;52.612;13.630;2022-12-07T18:34:18;16.27;;;10.50;;
13366;SDS011;6752;52.612;13.630;2022-12-07T18:39:18;13.73;;;8.52;;
13366;SDS011;6752;52.612;13.630;2022-12-07T18:44:23;14.18;;;7.85;;
13366;SDS011;6752;52.612;13.630;2022-12-07T18:54:30;18.77;;;9.60;;
13366;SDS011;6752;52.612;13.630;2022-12-07T18:59:33;13.77;;;8.90;;
13366;SDS011;6752;52.612;13.630;2022-12-07T19:04:47;21.30;;;9.63;;
13366;SDS011;6752;52.612;13.630;2022-12-07T19:09:49;16.52;;;9.45;;
13366;SDS011;6752;52.612;13.630;2022-12-07T19:14:52;14.10;;;9.68;;
13366;SDS011;6752;52.612;13.630;2022-12-07T19:19:57;13.68;;;8.98;;
13366;SDS011;6752;52.612;13.630;2022-12-07T19:30:04;11.15;;;8.90;;
13366;SDS011;6752;52.612;13.630;2022-12-07T19:40:11;14.65;;;10.00;;
13366;SDS011;6752;52.612;13.630;2022-12-07T19:45:19;18.30;;;9.43;;
13366;SDS011;6752;52.612;13.630;2022-12-07T19:50:22;19.55;;;10.50;;
13366;SDS011;6752;52.612;13.630;2022-12-07T19:55:27;15.38;;;9.02;;
13366;SDS011;6752;52.612;13.630;2022-12-07T20:00:30;14.73;;;9.70;;
13366;SDS011;6752;52.612;13.630;2022-12-07T20:05:35;10.38;;;8.75;;
13366;SDS011;6752;52.612;13.630;2022-12-07T20:10:38;11.77;;;8.40;;
13366;SDS011;6752;52.612;13.630;2022-12-07T20:15:42;15.88;;;9.85;;
13366;SDS011;6752;52.612;13.630;2022-12-07T20:20:51;19.75;;;10.63;;
13366;SDS011;6752;52.612;13.630;2022-12-07T20:25:59;15.83;;;10.20;;
13366;SDS011;6752;52.612;13.630;2022-12-07T20:31:01;16.75;;;9.60;;
13366;SDS011;6752;52.612;13.630;2022-12-07T20:36:04;12.07;;;9.40;;
13366;SDS011;6752;52.612;13.630;2022-12-07T20:41:10;17.30;;;8.77;;
13366;SDS011;6752;52.612;13.630;2022-12-07T20:46:29;18.33;;;9.73;;
13366;SDS011;6752;52.612;13.630;2022-12-07T20:51:32;18.12;;;10.73;;
13366;SDS011;6752;52.612;13.630;2022-12-07T20:56:37;15.60;;;10.45;;
13366;SDS011;6752;52.612;13.630;2022-12-07T21:01:43;16.52;;;10.55;;
13366;SDS011;6752;52.612;13.630;2022-12-07T21:16:52;23.52;;;12.35;;
13366;SDS011;6752;52.612;13.630;2022-12-07T21:21:57;19.00;;;11.60;;
13366;SDS011;6752;52.612;13.630;2022-12-07T21:26:59;17.85;;;11.93;;
13366;SDS011;6752;52.612;13.630;2022-12-07T21:32:02;20.90;;;11.48;;
13366;SDS011;6752;52.612;13.630;2022-12-07T21:37:07;22.90;;;13.75;;
13366;SDS011;6752;52.612;13.630;2022-12-07T21:42:09;20.50;;;13.93;;
13366;SDS011;6752;52.612;13.630;2022-12-07T21:47:14;25.73;;;15.77;;
13366;SDS011;6752;52.612;13.630;2022-12-07T21:52:17;22.70;;;14.45;;
13366;SDS011;6752;52.612;13.630;2022-12-07T21:57:22;23.60;;;15.23;;
13366;SDS011;6752;52.612;13.630;2022-12-07T22:02:25;23.27;;;14.48;;
13366;SDS011;6752;52.612;13.630;2022-12-07T22:07:30;24.73;;;15.45;;
13366;SDS011;6752;52.612;13.630;2022-12-07T22:12:33;28.55;;;15.63;;
13366;SDS011;6752;52.612;13.630;2022-12-07T22:17:35;21.75;;;14.77;;
13366;SDS011;6752;52.612;13.630;2022-12-07T22:22:38;23.25;;;15.70;;
13366;SDS011;6752;52.612;13.630;2022-12-07T22:27:40;26.55;;;15.48;;
13366;SDS011;6752;52.612;13.630;2022-12-07T22:32:42;27.60;;;15.73;;
13366;SDS011;6752;52.612;13.630;2022-12-07T22:37:45;26.12;;;17.40;;
13366;SDS011;6752;52.612;13.630;2022-12-07T22:42:47;22.52;;;14.93;;
13366;SDS011;6752;52.612;13.630;2022-12-07T22:47:50;18.58;;;14.65;;
13366;SDS011;6752;52.612;13.630;2022-12-07T22:57:54;26.55;;;15.63;;
13366;SDS011;6752;52.612;13.630;2022-12-07T23:02:56;20.55;;;14.93;;
13366;SDS011;6752;52.612;13.630;2022-12-07T23:07:59;24.30;;;15.23;;
13366;SDS011;6752;52.612;13.630;2022-12-07T23:13:01;29.35;;;17.62;;
13366;SDS011;6752;52.612;13.630;2022-12-07T23:18:21;33.72;;;17.83;;
13366;SDS011;6752;52.612;13.630;2022-12-07T23:23:24;27.25;;;18.48;;
13366;SDS011;6752;52.612;13.630;2022-12-07T23:28:26;25.05;;;18.27;;
13366;SDS011;6752;52.612;13.630;2022-12-07T23:33:28;26.35;;;16.30;;
13366;SDS011;6752;52.612;13.630;2022-12-07T23:38:31;25.55;;;16.95;;
13366;SDS011;6752;52.612;13.630;2022-12-07T23:43:37;30.92;;;18.62;;
13366;SDS011;6752;52.612;13.630;2022-12-07T23:48:36;28.10;;;17.37;;
13366;SDS011;6752;52.612;13.630;2022-12-07T23:53:39;32.67;;;16.67;;
13366;SDS011;6752;52.612;13.630;2022-12-07T23:58:40;24.60;;;19.05;;
